Terminal Aerodrome Forecast
Issued by NWS

Home | Current Version | Previous Version | Text Only | Print | Product List | Glossary On
Versions: 1 2 3 4 5 6 7 8 9 10 11 12 13 14 15 16
000
FTUS45 KTFX 082342
TAFGTF
TAF
KGTF 082342Z 0900/0924 VRB05KT P6SM OVC050
      TEMPO 0900/0902 3SM -SN BKN020 OVC030
     FM091200 VRB04KT 2SM -SN BKN010 OVC020
     FM092100 06005KT P6SM VCSH SCT015 OVC030=

USA.gov is the U.S. government's official web portal to all federal, state and local government web resources and services.